WMKJ/JHB METAR and TAF weather

Enter ICAO airport designator
Station Type Date Time Source
WMKJ METAR 2022/12/10 02:00 UTC NOAA

WMKJ 100200Z VRB03KT 9999 FEW017 26/24 Q1009


Station Type Date Time Source
WMKJ Decoded METAR 2022/12/10 02:00 UTC NOAA

Johore Bharu / Senai, Malaysia (WMKJ) 01-38N 103-40E 40M
Dec 09, 2022 - 09:00 PM EST / 2022.12.10 0200 UTC
Wind: Variable at 3 MPH (3 KT):0
Visibility: greater than 7 mile(s):0
Sky conditions: mostly clear
Temperature: 78 F (26 C)
Dew Point: 75 F (24 C)
Relative Humidity: 88%
Pressure (altimeter): 29.80 in. Hg (1009 hPa)
ob: WMKJ 100200Z VRB03KT 9999 FEW017 26/24 Q1009
cycle: 2

Station Type Date Time Source
WMKJ TAF 2022/12/09 18:09 UTC NOAA

TAF TAF WMKJ 091700Z 0918/1018 VRB03KT 9000 FEW018
TEMPO 1006/1010 4000 TSRA FEW017CB SCT018

Example: see airport list